sensor_id;sensor_type;location;lat;lon;timestamp;temperature;humidity
16655;DHT22;8441;51.344;7.022;2023-08-06T00:02:18;14.50;99.90
16655;DHT22;8441;51.344;7.022;2023-08-06T00:04:45;14.60;99.90
16655;DHT22;8441;51.344;7.022;2023-08-06T00:07:12;14.60;99.90
16655;DHT22;8441;51.344;7.022;2023-08-06T00:09:39;14.70;99.90
16655;DHT22;8441;51.344;7.022;2023-08-06T00:12:08;14.70;99.90
16655;DHT22;8441;51.344;7.022;2023-08-06T00:14:36;14.70;99.90
16655;DHT22;8441;51.344;7.022;2023-08-06T00:17:03;14.60;99.90
16655;DHT22;8441;51.344;7.022;2023-08-06T00:19:31;14.60;99.90
16655;DHT22;8441;51.344;7.022;2023-08-06T00:21:58;14.60;99.90
16655;DHT22;8441;51.344;7.022;2023-08-06T00:24:25;14.60;99.90
16655;DHT22;8441;51.344;7.022;2023-08-06T00:26:52;14.60;99.90
16655;DHT22;8441;51.344;7.022;2023-08-06T00:29:21;14.60;99.90
16655;DHT22;8441;51.344;7.022;2023-08-06T00:31:48;14.60;99.90
16655;DHT22;8441;51.344;7.022;2023-08-06T00:34:15;14.60;99.90
16655;DHT22;8441;51.344;7.022;2023-08-06T00:36:42;14.60;99.90
16655;DHT22;8441;51.344;7.022;2023-08-06T00:39:10;14.70;99.90
16655;DHT22;8441;51.344;7.022;2023-08-06T00:41:37;14.60;99.90
16655;DHT22;8441;51.344;7.022;2023-08-06T00:44:04;14.60;99.90
16655;DHT22;8441;51.344;7.022;2023-08-06T00:46:33;14.60;99.90
16655;DHT22;8441;51.344;7.022;2023-08-06T00:49:01;14.60;99.90
16655;DHT22;8441;51.344;7.022;2023-08-06T00:51:28;14.60;99.90
16655;DHT22;8441;51.344;7.022;2023-08-06T00:53:56;14.60;99.90
16655;DHT22;8441;51.344;7.022;2023-08-06T00:56:24;14.50;99.90
16655;DHT22;8441;51.344;7.022;2023-08-06T00:58:52;14.50;99.90
16655;DHT22;8441;51.344;7.022;2023-08-06T01:01:19;14.40;99.90
16655;DHT22;8441;51.344;7.022;2023-08-06T01:03:48;14.40;99.90
16655;DHT22;8441;51.344;7.022;2023-08-06T01:06:20;14.40;99.90
16655;DHT22;8441;51.344;7.022;2023-08-06T01:08:56;14.30;99.90
16655;DHT22;8441;51.344;7.022;2023-08-06T01:11:29;14.30;99.90
16655;DHT22;8441;51.344;7.022;2023-08-06T01:14:05;14.20;99.90
16655;DHT22;8441;51.344;7.022;2023-08-06T01:16:33;14.10;99.90
16655;DHT22;8441;51.344;7.022;2023-08-06T01:19:04;14.10;99.90
16655;DHT22;8441;51.344;7.022;2023-08-06T01:21:32;14.00;99.90
16655;DHT22;8441;51.344;7.022;2023-08-06T01:23:59;14.00;99.90
16655;DHT22;8441;51.344;7.022;2023-08-06T01:26:32;14.00;99.90
16655;DHT22;8441;51.344;7.022;2023-08-06T01:29:06;14.10;99.90
16655;DHT22;8441;51.344;7.022;2023-08-06T01:31:37;14.20;99.90
16655;DHT22;8441;51.344;7.022;2023-08-06T01:34:07;14.20;99.90
16655;DHT22;8441;51.344;7.022;2023-08-06T01:36:38;14.20;99.90
16655;DHT22;8441;51.344;7.022;2023-08-06T01:39:06;14.30;99.90
16655;DHT22;8441;51.344;7.022;2023-08-06T01:41:33;14.40;99.90
16655;DHT22;8441;51.344;7.022;2023-08-06T01:44:00;14.40;99.90
16655;DHT22;8441;51.344;7.022;2023-08-06T01:46:27;14.50;99.90
16655;DHT22;8441;51.344;7.022;2023-08-06T01:48:54;14.50;99.90
16655;DHT22;8441;51.344;7.022;2023-08-06T01:51:21;14.50;99.90
16655;DHT22;8441;51.344;7.022;2023-08-06T01:53:50;14.50;99.90
16655;DHT22;8441;51.344;7.022;2023-08-06T01:56:17;14.60;99.90
16655;DHT22;8441;51.344;7.022;2023-08-06T01:58:44;14.50;99.90
16655;DHT22;8441;51.344;7.022;2023-08-06T02:01:12;14.60;99.90
16655;DHT22;8441;51.344;7.022;2023-08-06T02:03:39;14.60;99.90
16655;DHT22;8441;51.344;7.022;2023-08-06T02:06:06;14.50;99.90
16655;DHT22;8441;51.344;7.022;2023-08-06T02:08:33;14.60;99.90
16655;DHT22;8441;51.344;7.022;2023-08-06T02:11:02;14.50;99.90
16655;DHT22;8441;51.344;7.022;2023-08-06T02:13:29;14.60;99.90
16655;DHT22;8441;51.344;7.022;2023-08-06T02:15:56;14.50;99.90
16655;DHT22;8441;51.344;7.022;2023-08-06T02:18:23;14.60;99.90
16655;DHT22;8441;51.344;7.022;2023-08-06T02:20:57;14.60;99.90
16655;DHT22;8441;51.344;7.022;2023-08-06T02:23:25;14.50;99.90
16655;DHT22;8441;51.344;7.022;2023-08-06T02:25:58;14.50;99.90
16655;DHT22;8441;51.344;7.022;2023-08-06T02:28:27;14.50;99.90
16655;DHT22;8441;51.344;7.022;2023-08-06T02:30:54;14.50;99.90
16655;DHT22;8441;51.344;7.022;2023-08-06T02:33:21;14.40;99.90
16655;DHT22;8441;51.344;7.022;2023-08-06T02:35:49;14.40;99.90
16655;DHT22;8441;51.344;7.022;2023-08-06T02:38:16;14.30;99.90
16655;DHT22;8441;51.344;7.022;2023-08-06T02:40:44;14.30;99.90
16655;DHT22;8441;51.344;7.022;2023-08-06T02:43:11;14.30;99.90
16655;DHT22;8441;51.344;7.022;2023-08-06T02:45:40;14.20;99.90
16655;DHT22;8441;51.344;7.022;2023-08-06T02:48:07;14.10;99.90
16655;DHT22;8441;51.344;7.022;2023-08-06T02:50:38;14.10;99.90
16655;DHT22;8441;51.344;7.022;2023-08-06T02:53:06;14.20;99.90
16655;DHT22;8441;51.344;7.022;2023-08-06T02:55:33;14.20;99.90
16655;DHT22;8441;51.344;7.022;2023-08-06T02:58:01;14.20;99.90
16655;DHT22;8441;51.344;7.022;2023-08-06T03:00:28;14.20;99.90
16655;DHT22;8441;51.344;7.022;2023-08-06T03:02:57;14.20;99.90
16655;DHT22;8441;51.344;7.022;2023-08-06T03:05:25;14.20;99.90
16655;DHT22;8441;51.344;7.022;2023-08-06T03:07:52;14.30;99.90
16655;DHT22;8441;51.344;7.022;2023-08-06T03:10:19;14.30;99.90
16655;DHT22;8441;51.344;7.022;2023-08-06T03:12:46;14.30;99.90
16655;DHT22;8441;51.344;7.022;2023-08-06T03:15:13;14.30;99.90
16655;DHT22;8441;51.344;7.022;2023-08-06T03:17:41;14.30;99.90
16655;DHT22;8441;51.344;7.022;2023-08-06T03:20:11;14.30;99.90
16655;DHT22;8441;51.344;7.022;2023-08-06T03:22:39;14.30;99.90
16655;DHT22;8441;51.344;7.022;2023-08-06T03:25:06;14.20;99.90
16655;DHT22;8441;51.344;7.022;2023-08-06T03:27:33;14.20;99.90
16655;DHT22;8441;51.344;7.022;2023-08-06T03:30:01;14.20;99.90
16655;DHT22;8441;51.344;7.022;2023-08-06T03:32:28;14.10;99.90
16655;DHT22;8441;51.344;7.022;2023-08-06T03:34:55;14.00;99.90
16655;DHT22;8441;51.344;7.022;2023-08-06T03:37:23;14.00;99.90
16655;DHT22;8441;51.344;7.022;2023-08-06T03:39:51;14.00;99.90
16655;DHT22;8441;51.344;7.022;2023-08-06T03:42:18;14.10;99.90
16655;DHT22;8441;51.344;7.022;2023-08-06T03:44:45;14.10;99.90
16655;DHT22;8441;51.344;7.022;2023-08-06T03:47:13;14.10;99.90
16655;DHT22;8441;51.344;7.022;2023-08-06T03:49:40;14.10;99.90
16655;DHT22;8441;51.344;7.022;2023-08-06T03:52:09;14.10;99.90
16655;DHT22;8441;51.344;7.022;2023-08-06T03:54:37;14.10;99.90
16655;DHT22;8441;51.344;7.022;2023-08-06T03:57:05;14.10;99.90
16655;DHT22;8441;51.344;7.022;2023-08-06T03:59:32;14.20;99.90
16655;DHT22;8441;51.344;7.022;2023-08-06T04:01:59;14.20;99.90
16655;DHT22;8441;51.344;7.022;2023-08-06T04:04:26;14.20;99.90
16655;DHT22;8441;51.344;7.022;2023-08-06T04:06:54;14.20;99.90
16655;DHT22;8441;51.344;7.022;2023-08-06T04:09:21;14.30;99.90
16655;DHT22;8441;51.344;7.022;2023-08-06T04:11:49;14.20;99.90
16655;DHT22;8441;51.344;7.022;2023-08-06T04:14:17;14.30;99.90
16655;DHT22;8441;51.344;7.022;2023-08-06T04:16:44;14.30;99.90
16655;DHT22;8441;51.344;7.022;2023-08-06T04:19:11;14.30;99.90
16655;DHT22;8441;51.344;7.022;2023-08-06T04:21:38;14.30;99.90
16655;DHT22;8441;51.344;7.022;2023-08-06T04:24:05;14.30;99.90
16655;DHT22;8441;51.344;7.022;2023-08-06T04:26:32;14.30;99.90
16655;DHT22;8441;51.344;7.022;2023-08-06T04:29:01;14.30;99.90
16655;DHT22;8441;51.344;7.022;2023-08-06T04:31:29;14.30;99.90
16655;DHT22;8441;51.344;7.022;2023-08-06T04:33:56;14.30;99.90
16655;DHT22;8441;51.344;7.022;2023-08-06T04:36:23;14.40;99.90
16655;DHT22;8441;51.344;7.022;2023-08-06T04:38:50;14.30;99.90
16655;DHT22;8441;51.344;7.022;2023-08-06T04:41:17;14.40;99.90
16655;DHT22;8441;51.344;7.022;2023-08-06T04:43:45;14.30;99.90
16655;DHT22;8441;51.344;7.022;2023-08-06T04:46:13;14.30;99.90
16655;DHT22;8441;51.344;7.022;2023-08-06T04:48:41;14.30;99.90
16655;DHT22;8441;51.344;7.022;2023-08-06T04:51:08;14.30;99.90
16655;DHT22;8441;51.344;7.022;2023-08-06T04:53:35;14.30;99.90
16655;DHT22;8441;51.344;7.022;2023-08-06T04:56:03;14.40;99.90
16655;DHT22;8441;51.344;7.022;2023-08-06T04:58:30;14.30;99.90
16655;DHT22;8441;51.344;7.022;2023-08-06T05:00:58;14.30;99.90
16655;DHT22;8441;51.344;7.022;2023-08-06T05:03:26;14.30;99.90
16655;DHT22;8441;51.344;7.022;2023-08-06T05:05:53;14.40;99.90
16655;DHT22;8441;51.344;7.022;2023-08-06T05:08:20;14.40;99.90
16655;DHT22;8441;51.344;7.022;2023-08-06T05:10:48;14.50;99.90
16655;DHT22;8441;51.344;7.022;2023-08-06T05:13:15;14.50;99.90
16655;DHT22;8441;51.344;7.022;2023-08-06T05:15:42;14.70;99.90
16655;DHT22;8441;51.344;7.022;2023-08-06T05:18:11;14.70;99.90
16655;DHT22;8441;51.344;7.022;2023-08-06T05:20:41;14.90;99.90
16655;DHT22;8441;51.344;7.022;2023-08-06T05:23:08;15.00;99.90
16655;DHT22;8441;51.344;7.022;2023-08-06T05:25:36;15.10;99.90
16655;DHT22;8441;51.344;7.022;2023-08-06T05:28:03;15.10;99.90
16655;DHT22;8441;51.344;7.022;2023-08-06T05:30:31;15.10;99.90
16655;DHT22;8441;51.344;7.022;2023-08-06T05:32:58;15.10;99.90
16655;DHT22;8441;51.344;7.022;2023-08-06T05:35:25;15.10;99.90
16655;DHT22;8441;51.344;7.022;2023-08-06T05:37:54;15.20;99.90
16655;DHT22;8441;51.344;7.022;2023-08-06T05:40:21;15.20;99.90
16655;DHT22;8441;51.344;7.022;2023-08-06T05:42:50;15.20;99.90
16655;DHT22;8441;51.344;7.022;2023-08-06T05:45:17;15.20;99.90
16655;DHT22;8441;51.344;7.022;2023-08-06T05:47:44;15.20;99.90
16655;DHT22;8441;51.344;7.022;2023-08-06T05:50:12;15.40;99.90
16655;DHT22;8441;51.344;7.022;2023-08-06T05:52:39;15.50;99.90
16655;DHT22;8441;51.344;7.022;2023-08-06T05:55:08;15.60;99.90
16655;DHT22;8441;51.344;7.022;2023-08-06T05:57:35;15.70;99.90
16655;DHT22;8441;51.344;7.022;2023-08-06T06:00:03;15.80;99.90
16655;DHT22;8441;51.344;7.022;2023-08-06T06:02:31;15.90;99.90
16655;DHT22;8441;51.344;7.022;2023-08-06T06:04:59;15.90;99.90
16655;DHT22;8441;51.344;7.022;2023-08-06T06:07:26;16.00;99.90
16655;DHT22;8441;51.344;7.022;2023-08-06T06:09:53;16.10;99.90
16655;DHT22;8441;51.344;7.022;2023-08-06T06:12:22;16.20;99.90
16655;DHT22;8441;51.344;7.022;2023-08-06T06:14:51;16.20;99.90
16655;DHT22;8441;51.344;7.022;2023-08-06T06:17:18;16.20;99.90
16655;DHT22;8441;51.344;7.022;2023-08-06T06:19:46;16.30;99.90
16655;DHT22;8441;51.344;7.022;2023-08-06T06:22:14;16.30;99.90
16655;DHT22;8441;51.344;7.022;2023-08-06T06:24:41;16.40;99.90
16655;DHT22;8441;51.344;7.022;2023-08-06T06:27:08;16.50;99.90
16655;DHT22;8441;51.344;7.022;2023-08-06T06:29:37;16.50;99.90
16655;DHT22;8441;51.344;7.022;2023-08-06T06:32:04;16.60;99.90
16655;DHT22;8441;51.344;7.022;2023-08-06T06:34:31;16.70;99.90
16655;DHT22;8441;51.344;7.022;2023-08-06T06:36:58;16.90;99.90
16655;DHT22;8441;51.344;7.022;2023-08-06T06:39:26;16.80;99.90
16655;DHT22;8441;51.344;7.022;2023-08-06T06:41:53;16.90;99.90
16655;DHT22;8441;51.344;7.022;2023-08-06T06:44:20;16.90;99.90
16655;DHT22;8441;51.344;7.022;2023-08-06T06:46:48;17.00;99.90
16655;DHT22;8441;51.344;7.022;2023-08-06T06:49:16;16.90;99.90
16655;DHT22;8441;51.344;7.022;2023-08-06T06:51:43;17.00;99.90
16655;DHT22;8441;51.344;7.022;2023-08-06T06:54:10;17.20;99.90
16655;DHT22;8441;51.344;7.022;2023-08-06T06:56:37;17.40;99.90
16655;DHT22;8441;51.344;7.022;2023-08-06T06:59:05;17.70;99.90
16655;DHT22;8441;51.344;7.022;2023-08-06T07:01:32;17.80;99.90
16655;DHT22;8441;51.344;7.022;2023-08-06T07:04:01;17.70;99.90
16655;DHT22;8441;51.344;7.022;2023-08-06T07:06:30;17.80;99.90
16655;DHT22;8441;51.344;7.022;2023-08-06T07:08:58;17.70;99.90
16655;DHT22;8441;51.344;7.022;2023-08-06T07:11:25;17.70;99.90
16655;DHT22;8441;51.344;7.022;2023-08-06T07:13:56;17.80;99.90
16655;DHT22;8441;51.344;7.022;2023-08-06T07:16:24;18.00;99.90
16655;DHT22;8441;51.344;7.022;2023-08-06T07:18:52;18.20;99.90
16655;DHT22;8441;51.344;7.022;2023-08-06T07:21:21;18.30;99.90
16655;DHT22;8441;51.344;7.022;2023-08-06T07:23:48;18.50;99.90
16655;DHT22;8441;51.344;7.022;2023-08-06T07:26:16;18.70;99.90
16655;DHT22;8441;51.344;7.022;2023-08-06T07:28:43;18.60;99.90
16655;DHT22;8441;51.344;7.022;2023-08-06T07:31:11;18.60;99.90
16655;DHT22;8441;51.344;7.022;2023-08-06T07:33:38;18.70;99.90
16655;DHT22;8441;51.344;7.022;2023-08-06T07:36:11;19.00;99.90
16655;DHT22;8441;51.344;7.022;2023-08-06T07:38:41;18.70;99.90
16655;DHT22;8441;51.344;7.022;2023-08-06T07:41:08;18.80;99.90
16655;DHT22;8441;51.344;7.022;2023-08-06T07:43:36;18.80;99.90
16655;DHT22;8441;51.344;7.022;2023-08-06T07:46:03;18.90;99.90
16655;DHT22;8441;51.344;7.022;2023-08-06T07:48:30;19.00;99.90
16655;DHT22;8441;51.344;7.022;2023-08-06T07:50:58;18.90;99.90
16655;DHT22;8441;51.344;7.022;2023-08-06T07:53:25;19.00;99.90
16655;DHT22;8441;51.344;7.022;2023-08-06T07:55:56;19.20;99.90
16655;DHT22;8441;51.344;7.022;2023-08-06T07:58:24;19.20;99.90
16655;DHT22;8441;51.344;7.022;2023-08-06T08:00:51;19.30;99.90
16655;DHT22;8441;51.344;7.022;2023-08-06T08:03:19;19.20;99.90
16655;DHT22;8441;51.344;7.022;2023-08-06T08:05:46;19.40;99.90
16655;DHT22;8441;51.344;7.022;2023-08-06T08:08:13;19.60;99.90
16655;DHT22;8441;51.344;7.022;2023-08-06T08:10:41;19.70;99.90
16655;DHT22;8441;51.344;7.022;2023-08-06T08:13:10;19.50;99.90
16655;DHT22;8441;51.344;7.022;2023-08-06T08:15:37;19.50;99.90
16655;DHT22;8441;51.344;7.022;2023-08-06T08:18:04;19.70;99.90
16655;DHT22;8441;51.344;7.022;2023-08-06T08:20:32;19.90;99.90
16655;DHT22;8441;51.344;7.022;2023-08-06T08:23:01;20.10;99.90
16655;DHT22;8441;51.344;7.022;2023-08-06T08:25:28;20.10;99.90
16655;DHT22;8441;51.344;7.022;2023-08-06T08:27:57;19.90;99.90
16655;DHT22;8441;51.344;7.022;2023-08-06T08:30:26;20.00;99.90
16655;DHT22;8441;51.344;7.022;2023-08-06T08:32:53;20.00;99.90
16655;DHT22;8441;51.344;7.022;2023-08-06T08:35:22;20.00;99.90
16655;DHT22;8441;51.344;7.022;2023-08-06T08:37:49;19.90;99.90
16655;DHT22;8441;51.344;7.022;2023-08-06T08:40:17;19.60;99.90
16655;DHT22;8441;51.344;7.022;2023-08-06T08:42:45;19.60;99.90
16655;DHT22;8441;51.344;7.022;2023-08-06T08:45:13;19.40;99.90
16655;DHT22;8441;51.344;7.022;2023-08-06T08:47:42;19.40;99.90
16655;DHT22;8441;51.344;7.022;2023-08-06T08:50:10;19.70;99.90
16655;DHT22;8441;51.344;7.022;2023-08-06T08:52:39;19.60;99.90
16655;DHT22;8441;51.344;7.022;2023-08-06T08:55:08;19.60;99.90
16655;DHT22;8441;51.344;7.022;2023-08-06T08:57:36;19.60;99.90
16655;DHT22;8441;51.344;7.022;2023-08-06T09:00:04;19.30;99.90
16655;DHT22;8441;51.344;7.022;2023-08-06T09:02:33;19.10;99.90
16655;DHT22;8441;51.344;7.022;2023-08-06T09:05:03;19.10;99.90
16655;DHT22;8441;51.344;7.022;2023-08-06T09:07:35;19.30;99.90
16655;DHT22;8441;51.344;7.022;2023-08-06T09:10:05;19.30;99.90
16655;DHT22;8441;51.344;7.022;2023-08-06T09:12:34;19.10;99.90
16655;DHT22;8441;51.344;7.022;2023-08-06T09:15:01;19.20;99.90
16655;DHT22;8441;51.344;7.022;2023-08-06T09:17:29;19.60;99.90
16655;DHT22;8441;51.344;7.022;2023-08-06T09:19:56;19.70;99.90
16655;DHT22;8441;51.344;7.022;2023-08-06T09:22:25;19.60;99.90
16655;DHT22;8441;51.344;7.022;2023-08-06T09:25:00;19.30;99.90
16655;DHT22;8441;51.344;7.022;2023-08-06T09:27:27;19.50;99.90
16655;DHT22;8441;51.344;7.022;2023-08-06T09:29:54;19.90;99.90
16655;DHT22;8441;51.344;7.022;2023-08-06T09:32:21;20.20;99.90
16655;DHT22;8441;51.344;7.022;2023-08-06T09:34:55;20.40;99.90
16655;DHT22;8441;51.344;7.022;2023-08-06T09:37:24;20.30;99.90
16655;DHT22;8441;51.344;7.022;2023-08-06T09:39:52;20.10;99.90
16655;DHT22;8441;51.344;7.022;2023-08-06T09:42:20;19.70;99.90
16655;DHT22;8441;51.344;7.022;2023-08-06T09:44:47;19.50;99.90
16655;DHT22;8441;51.344;7.022;2023-08-06T09:47:16;19.40;99.90
16655;DHT22;8441;51.344;7.022;2023-08-06T09:49:44;19.20;99.90
16655;DHT22;8441;51.344;7.022;2023-08-06T09:52:12;19.10;99.90
16655;DHT22;8441;51.344;7.022;2023-08-06T09:54:43;19.00;99.90
16655;DHT22;8441;51.344;7.022;2023-08-06T09:57:13;18.90;99.90
16655;DHT22;8441;51.344;7.022;2023-08-06T09:59:42;18.80;99.90
16655;DHT22;8441;51.344;7.022;2023-08-06T10:02:13;18.80;99.90
16655;DHT22;8441;51.344;7.022;2023-08-06T10:04:40;18.80;99.90
16655;DHT22;8441;51.344;7.022;2023-08-06T10:07:09;18.80;99.90
16655;DHT22;8441;51.344;7.022;2023-08-06T10:09:36;19.00;99.90
16655;DHT22;8441;51.344;7.022;2023-08-06T10:12:06;19.10;99.90
16655;DHT22;8441;51.344;7.022;2023-08-06T10:14:35;19.30;99.90
16655;DHT22;8441;51.344;7.022;2023-08-06T10:17:03;19.20;99.90
16655;DHT22;8441;51.344;7.022;2023-08-06T10:19:32;19.10;99.90
16655;DHT22;8441;51.344;7.022;2023-08-06T10:22:09;19.30;99.90
16655;DHT22;8441;51.344;7.022;2023-08-06T10:24:50;19.40;99.90
16655;DHT22;8441;51.344;7.022;2023-08-06T10:27:22;19.70;99.90
16655;DHT22;8441;51.344;7.022;2023-08-06T10:29:55;19.80;99.90
16655;DHT22;8441;51.344;7.022;2023-08-06T10:32:22;19.80;99.90
16655;DHT22;8441;51.344;7.022;2023-08-06T10:35:28;19.80;99.90
16655;DHT22;8441;51.344;7.022;2023-08-06T10:37:58;20.00;99.90
16655;DHT22;8441;51.344;7.022;2023-08-06T10:40:26;20.20;99.90
16655;DHT22;8441;51.344;7.022;2023-08-06T10:42:58;20.30;99.90
16655;DHT22;8441;51.344;7.022;2023-08-06T10:45:26;20.30;99.90
16655;DHT22;8441;51.344;7.022;2023-08-06T10:47:55;20.60;99.90
16655;DHT22;8441;51.344;7.022;2023-08-06T10:50:23;20.70;99.90
16655;DHT22;8441;51.344;7.022;2023-08-06T10:52:51;20.60;99.90
16655;DHT22;8441;51.344;7.022;2023-08-06T10:55:25;20.50;99.90
16655;DHT22;8441;51.344;7.022;2023-08-06T10:57:53;20.40;99.90
16655;DHT22;8441;51.344;7.022;2023-08-06T11:00:23;20.70;99.90
16655;DHT22;8441;51.344;7.022;2023-08-06T11:02:51;20.50;99.90
16655;DHT22;8441;51.344;7.022;2023-08-06T11:05:21;20.10;99.90
16655;DHT22;8441;51.344;7.022;2023-08-06T11:07:48;19.50;99.90
16655;DHT22;8441;51.344;7.022;2023-08-06T11:10:17;18.90;99.90
16655;DHT22;8441;51.344;7.022;2023-08-06T11:12:44;18.40;99.90
16655;DHT22;8441;51.344;7.022;2023-08-06T11:15:12;17.80;99.90
16655;DHT22;8441;51.344;7.022;2023-08-06T11:17:41;17.30;99.90
16655;DHT22;8441;51.344;7.022;2023-08-06T11:20:09;16.90;99.90
16655;DHT22;8441;51.344;7.022;2023-08-06T11:22:37;16.50;99.90
16655;DHT22;8441;51.344;7.022;2023-08-06T11:25:06;16.20;99.90
16655;DHT22;8441;51.344;7.022;2023-08-06T11:27:33;15.80;99.90
16655;DHT22;8441;51.344;7.022;2023-08-06T11:30:01;15.60;99.90
16655;DHT22;8441;51.344;7.022;2023-08-06T11:32:28;15.40;99.90
16655;DHT22;8441;51.344;7.022;2023-08-06T11:34:56;15.20;99.90
16655;DHT22;8441;51.344;7.022;2023-08-06T11:37:24;15.10;99.90
16655;DHT22;8441;51.344;7.022;2023-08-06T11:39:52;15.10;99.90
16655;DHT22;8441;51.344;7.022;2023-08-06T11:42:19;15.00;99.90
16655;DHT22;8441;51.344;7.022;2023-08-06T11:44:46;15.00;99.90
16655;DHT22;8441;51.344;7.022;2023-08-06T11:47:15;14.90;99.90
16655;DHT22;8441;51.344;7.022;2023-08-06T11:49:44;14.80;99.90
16655;DHT22;8441;51.344;7.022;2023-08-06T11:52:16;14.80;99.90
16655;DHT22;8441;51.344;7.022;2023-08-06T11:54:45;14.70;99.90
16655;DHT22;8441;51.344;7.022;2023-08-06T11:57:13;14.70;99.90
16655;DHT22;8441;51.344;7.022;2023-08-06T11:59:40;14.60;99.90
16655;DHT22;8441;51.344;7.022;2023-08-06T12:02:09;14.60;99.90
16655;DHT22;8441;51.344;7.022;2023-08-06T12:04:59;14.50;99.90
16655;DHT22;8441;51.344;7.022;2023-08-06T12:07:28;14.40;99.90
16655;DHT22;8441;51.344;7.022;2023-08-06T12:09:56;14.40;99.90
16655;DHT22;8441;51.344;7.022;2023-08-06T12:12:23;14.40;99.90
16655;DHT22;8441;51.344;7.022;2023-08-06T12:14:51;14.40;99.90
16655;DHT22;8441;51.344;7.022;2023-08-06T12:17:18;14.30;99.90
16655;DHT22;8441;51.344;7.022;2023-08-06T12:19:45;14.20;99.90
16655;DHT22;8441;51.344;7.022;2023-08-06T12:22:13;14.20;99.90
16655;DHT22;8441;51.344;7.022;2023-08-06T12:24:42;14.30;99.90
16655;DHT22;8441;51.344;7.022;2023-08-06T12:27:10;14.30;99.90
16655;DHT22;8441;51.344;7.022;2023-08-06T12:29:40;14.30;99.90
16655;DHT22;8441;51.344;7.022;2023-08-06T12:32:07;14.40;99.90
16655;DHT22;8441;51.344;7.022;2023-08-06T12:34:34;14.30;99.90
16655;DHT22;8441;51.344;7.022;2023-08-06T12:37:02;14.30;99.90
16655;DHT22;8441;51.344;7.022;2023-08-06T12:39:30;14.40;99.90
16655;DHT22;8441;51.344;7.022;2023-08-06T12:42:00;14.40;99.90
16655;DHT22;8441;51.344;7.022;2023-08-06T12:44:27;14.40;99.90
16655;DHT22;8441;51.344;7.022;2023-08-06T12:46:54;14.40;99.90
16655;DHT22;8441;51.344;7.022;2023-08-06T12:49:22;14.60;99.90
16655;DHT22;8441;51.344;7.022;2023-08-06T12:51:50;14.50;99.90
16655;DHT22;8441;51.344;7.022;2023-08-06T12:54:17;14.60;99.90
16655;DHT22;8441;51.344;7.022;2023-08-06T12:56:45;14.60;99.90
16655;DHT22;8441;51.344;7.022;2023-08-06T12:59:16;14.50;99.90
16655;DHT22;8441;51.344;7.022;2023-08-06T13:01:44;14.50;99.90
16655;DHT22;8441;51.344;7.022;2023-08-06T13:04:11;14.50;99.90
16655;DHT22;8441;51.344;7.022;2023-08-06T13:06:38;14.60;99.90
16655;DHT22;8441;51.344;7.022;2023-08-06T13:09:06;14.60;99.90
16655;DHT22;8441;51.344;7.022;2023-08-06T13:11:34;14.60;99.90
16655;DHT22;8441;51.344;7.022;2023-08-06T13:14:05;14.60;99.90
16655;DHT22;8441;51.344;7.022;2023-08-06T13:16:34;14.70;99.90
16655;DHT22;8441;51.344;7.022;2023-08-06T13:19:02;14.70;99.90
16655;DHT22;8441;51.344;7.022;2023-08-06T13:21:32;14.70;99.90
16655;DHT22;8441;51.344;7.022;2023-08-06T13:24:01;14.70;99.90
16655;DHT22;8441;51.344;7.022;2023-08-06T13:26:28;14.60;99.90
16655;DHT22;8441;51.344;7.022;2023-08-06T13:28:57;14.50;99.90
16655;DHT22;8441;51.344;7.022;2023-08-06T13:31:24;14.50;99.90
16655;DHT22;8441;51.344;7.022;2023-08-06T13:33:54;14.50;99.90
16655;DHT22;8441;51.344;7.022;2023-08-06T13:36:23;14.50;99.90
16655;DHT22;8441;51.344;7.022;2023-08-06T13:38:51;14.60;99.90
16655;DHT22;8441;51.344;7.022;2023-08-06T13:41:18;14.60;99.90
16655;DHT22;8441;51.344;7.022;2023-08-06T13:43:46;14.70;99.90
16655;DHT22;8441;51.344;7.022;2023-08-06T13:46:13;14.70;99.90
16655;DHT22;8441;51.344;7.022;2023-08-06T13:48:42;14.70;99.90
16655;DHT22;8441;51.344;7.022;2023-08-06T13:51:12;14.60;99.90
16655;DHT22;8441;51.344;7.022;2023-08-06T13:53:40;14.60;99.90
16655;DHT22;8441;51.344;7.022;2023-08-06T13:56:08;14.60;99.90
16655;DHT22;8441;51.344;7.022;2023-08-06T13:58:35;14.70;99.90
16655;DHT22;8441;51.344;7.022;2023-08-06T14:01:03;14.60;99.90
16655;DHT22;8441;51.344;7.022;2023-08-06T14:03:30;14.70;99.90
16655;DHT22;8441;51.344;7.022;2023-08-06T14:05:57;14.60;99.90
16655;DHT22;8441;51.344;7.022;2023-08-06T14:08:26;14.60;99.90
16655;DHT22;8441;51.344;7.022;2023-08-06T14:10:53;14.60;99.90
16655;DHT22;8441;51.344;7.022;2023-08-06T14:13:21;14.60;99.90
16655;DHT22;8441;51.344;7.022;2023-08-06T14:15:49;14.70;99.90
16655;DHT22;8441;51.344;7.022;2023-08-06T14:18:16;14.80;99.90
16655;DHT22;8441;51.344;7.022;2023-08-06T14:20:44;14.90;99.90
16655;DHT22;8441;51.344;7.022;2023-08-06T14:23:11;15.00;99.90
16655;DHT22;8441;51.344;7.022;2023-08-06T14:25:40;15.00;99.90
16655;DHT22;8441;51.344;7.022;2023-08-06T14:28:07;15.10;99.90
16655;DHT22;8441;51.344;7.022;2023-08-06T14:30:34;15.10;99.90
16655;DHT22;8441;51.344;7.022;2023-08-06T14:33:01;15.10;99.90
16655;DHT22;8441;51.344;7.022;2023-08-06T14:35:29;15.30;99.90
16655;DHT22;8441;51.344;7.022;2023-08-06T14:37:56;15.50;99.90
16655;DHT22;8441;51.344;7.022;2023-08-06T14:40:23;15.70;99.90
16655;DHT22;8441;51.344;7.022;2023-08-06T14:42:55;15.70;99.90
16655;DHT22;8441;51.344;7.022;2023-08-06T14:45:22;15.70;99.90
16655;DHT22;8441;51.344;7.022;2023-08-06T14:47:49;15.70;99.90
16655;DHT22;8441;51.344;7.022;2023-08-06T14:50:17;15.80;99.90
16655;DHT22;8441;51.344;7.022;2023-08-06T14:52:44;15.80;99.90
16655;DHT22;8441;51.344;7.022;2023-08-06T14:55:11;15.70;99.90
16655;DHT22;8441;51.344;7.022;2023-08-06T14:57:38;15.70;99.90
16655;DHT22;8441;51.344;7.022;2023-08-06T15:00:08;15.50;99.90
16655;DHT22;8441;51.344;7.022;2023-08-06T15:02:36;15.40;99.90
16655;DHT22;8441;51.344;7.022;2023-08-06T15:05:03;15.40;99.90
16655;DHT22;8441;51.344;7.022;2023-08-06T15:07:31;15.50;99.90
16655;DHT22;8441;51.344;7.022;2023-08-06T15:10:01;15.70;99.90
16655;DHT22;8441;51.344;7.022;2023-08-06T15:12:28;16.10;99.90
16655;DHT22;8441;51.344;7.022;2023-08-06T15:14:55;16.50;99.90
16655;DHT22;8441;51.344;7.022;2023-08-06T15:17:24;16.70;99.90
16655;DHT22;8441;51.344;7.022;2023-08-06T15:19:52;16.90;99.90
16655;DHT22;8441;51.344;7.022;2023-08-06T15:22:19;17.00;99.90
16655;DHT22;8441;51.344;7.022;2023-08-06T15:24:46;16.90;99.90
16655;DHT22;8441;51.344;7.022;2023-08-06T15:27:14;17.00;99.90
16655;DHT22;8441;51.344;7.022;2023-08-06T15:29:41;17.10;99.90
16655;DHT22;8441;51.344;7.022;2023-08-06T15:32:09;17.10;99.90
16655;DHT22;8441;51.344;7.022;2023-08-06T15:34:37;16.80;99.90
16655;DHT22;8441;51.344;7.022;2023-08-06T15:37:05;16.60;99.90
16655;DHT22;8441;51.344;7.022;2023-08-06T15:39:33;16.40;99.90
16655;DHT22;8441;51.344;7.022;2023-08-06T15:42:00;16.30;99.90
16655;DHT22;8441;51.344;7.022;2023-08-06T15:44:27;16.40;99.90
16655;DHT22;8441;51.344;7.022;2023-08-06T15:46:55;16.50;99.90
16655;DHT22;8441;51.344;7.022;2023-08-06T15:49:22;16.40;99.90
16655;DHT22;8441;51.344;7.022;2023-08-06T15:51:51;16.50;99.90